Time;durP1;ratioP1;P1;durP2;ratioP2;P2;SDS_P1;SDS_P2;PMS_P1;PMS_P2;Temp;Humidity;BMP_temperature;BMP_pressure;BME280_temperature;BME280_humidity;BME280_pressure;Samples;Min_cycle;Max_cycle;Signal;HPM_P1;HPM_P2
2023/05/20 00:01:20;;;;;;;14.00;4.05;;;;;;;12.95;100.00;102485.88;5072302;28;20069;-47
2023/05/20 00:03:46;;;;;;;13.60;3.78;;;;;;;12.91;100.00;102484.53;5086020;28;20040;-45
2023/05/20 00:06:11;;;;;;;12.57;3.63;;;;;;;12.91;100.00;102477.25;5072329;28;20058;-46
2023/05/20 00:08:36;;;;;;;14.18;4.13;;;;;;;12.88;100.00;102482.97;5080099;28;20161;-45
2023/05/20 00:11:02;;;;;;;10.32;3.70;;;;;;;12.86;100.00;102476.03;5085947;28;20028;-45
2023/05/20 00:13:27;;;;;;;7.97;4.13;;;;;;;12.82;100.00;102483.63;5073785;28;20090;-47
2023/05/20 00:15:53;;;;;;;12.27;4.30;;;;;;;12.83;100.00;102484.47;5080344;28;20028;-46
2023/05/20 00:18:18;;;;;;;11.60;4.07;;;;;;;12.76;100.00;102483.38;5083340;28;20063;-47
2023/05/20 00:20:43;;;;;;;9.10;3.72;;;;;;;12.75;100.00;102477.13;5090081;28;20036;-44
2023/05/20 00:23:09;;;;;;;9.38;4.10;;;;;;;12.76;100.00;102483.38;5089621;28;20454;-48
2023/05/20 00:25:34;;;;;;;11.18;4.07;;;;;;;12.70;100.00;102476.75;5072927;28;20048;-49
2023/05/20 00:28:00;;;;;;;12.27;3.92;;;;;;;12.71;100.00;102479.28;5073247;28;20060;-44
2023/05/20 00:30:25;;;;;;;9.18;4.22;;;;;;;12.73;100.00;102490.78;5084717;28;20036;-44
2023/05/20 00:32:50;;;;;;;12.52;4.05;;;;;;;12.68;100.00;102482.28;5082820;28;20517;-45
2023/05/20 00:35:16;;;;;;;10.43;4.22;;;;;;;12.69;100.00;102486.72;5079376;28;20111;-44
2023/05/20 00:37:42;;;;;;;13.93;4.18;;;;;;;12.70;100.00;102490.25;5075415;28;20048;-45
2023/05/20 00:40:07;;;;;;;13.55;4.70;;;;;;;12.65;100.00;102487.16;5069502;28;20459;-47
2023/05/20 00:42:33;;;;;;;16.60;4.90;;;;;;;12.62;100.00;102492.88;5078219;28;20050;-46
2023/05/20 00:44:58;;;;;;;15.02;4.07;;;;;;;12.60;100.00;102482.22;5087190;28;20036;-46
2023/05/20 00:47:35;;;;;;;12.43;4.57;;;;;;;12.60;100.00;102479.53;5077468;28;20491;-48
2023/05/20 00:50:00;;;;;;;15.60;4.38;;;;;;;12.55;100.00;102475.59;5084493;28;20434;-45
2023/05/20 00:52:29;;;;;;;16.77;4.20;;;;;;;12.56;100.00;102471.88;5076780;28;20044;-45
2023/05/20 00:54:55;;;;;;;10.10;4.35;;;;;;;12.54;100.00;102469.34;5070739;28;20168;-48
2023/05/20 00:57:20;;;;;;;12.93;4.57;;;;;;;12.55;100.00;102467.50;5070676;28;20024;-46
2023/05/20 00:59:46;;;;;;;14.65;5.05;;;;;;;12.51;100.00;102458.88;5072098;28;20032;-45
2023/05/20 01:02:11;;;;;;;13.30;4.80;;;;;;;12.50;100.00;102460.69;5079774;28;20111;-48
2023/05/20 01:04:37;;;;;;;13.55;4.80;;;;;;;12.47;100.00;102463.72;5075943;28;20038;-47
2023/05/20 01:07:03;;;;;;;14.25;4.60;;;;;;;12.45;100.00;102457.63;5072947;28;20029;-44
2023/05/20 01:09:30;;;;;;;13.45;5.20;;;;;;;12.45;100.00;102473.84;5077721;28;20119;-46
2023/05/20 01:12:02;;;;;;;16.58;5.78;;;;;;;12.44;100.00;102458.63;5075319;28;20043;-44
2023/05/20 01:14:32;;;;;;;17.58;4.45;;;;;;;12.40;100.00;102457.25;5075627;28;20049;-44
2023/05/20 01:17:01;;;;;;;12.48;4.25;;;;;;;12.40;100.00;102462.66;5079076;28;20479;-45
2023/05/20 01:19:34;;;;;;;21.17;5.25;;;;;;;12.38;100.00;102459.25;5073335;28;20032;-46
2023/05/20 01:22:05;;;;;;;11.70;4.60;;;;;;;12.34;100.00;102460.56;5083248;28;20452;-46
2023/05/20 01:24:31;;;;;;;13.82;4.88;;;;;;;12.32;100.00;102465.25;5069069;28;20536;-48
2023/05/20 01:26:57;;;;;;;13.48;4.57;;;;;;;12.29;100.00;102458.31;5081165;28;20036;-43
2023/05/20 01:29:23;;;;;;;19.90;5.38;;;;;;;12.32;100.00;102457.16;5075034;28;20039;-46
2023/05/20 01:31:49;;;;;;;12.65;4.90;;;;;;;12.26;100.00;102463.16;5075732;28;20024;-45
2023/05/20 01:34:15;;;;;;;17.67;4.68;;;;;;;12.21;100.00;102451.97;5089647;28;20130;-45
2023/05/20 01:36:41;;;;;;;14.70;5.70;;;;;;;12.21;100.00;102449.28;5083463;28;20422;-46
2023/05/20 01:39:07;;;;;;;15.50;5.22;;;;;;;12.21;100.00;102452.81;5083907;28;20040;-48
2023/05/20 01:41:33;;;;;;;15.40;4.85;;;;;;;12.20;100.00;102451.13;5084849;28;20020;-45
2023/05/20 01:43:59;;;;;;;18.00;5.60;;;;;;;12.19;100.00;102449.44;5089606;28;20028;-47
2023/05/20 01:46:25;;;;;;;9.60;5.18;;;;;;;12.15;100.00;102447.22;5088254;28;20042;-46
2023/05/20 01:48:50;;;;;;;15.80;5.10;;;;;;;12.16;100.00;102441.63;5089532;28;20074;-48
2023/05/20 01:51:16;;;;;;;15.50;5.68;;;;;;;12.13;100.00;102443.81;5074153;28;20054;-44
2023/05/20 01:53:42;;;;;;;13.88;5.55;;;;;;;12.18;100.00;102441.50;5074148;28;20090;-44
2023/05/20 01:56:07;;;;;;;14.48;5.75;;;;;;;12.15;100.00;102439.09;5077572;28;20405;-43
2023/05/20 01:58:32;;;;;;;13.75;6.03;;;;;;;12.15;100.00;102441.81;5079838;28;20020;-46
2023/05/20 02:00:58;;;;;;;12.52;5.03;;;;;;;12.14;100.00;102445.50;5090900;28;20036;-46
2023/05/20 02:03:24;;;;;;;18.80;5.60;;;;;;;12.12;100.00;102431.31;5079989;28;20453;-45
2023/05/20 02:05:49;;;;;;;24.55;5.80;;;;;;;12.08;100.00;102430.75;5076187;28;20038;-45
2023/05/20 02:08:15;;;;;;;13.60;5.43;;;;;;;12.07;100.00;102432.63;5091579;28;20141;-45
2023/05/20 02:10:42;;;;;;;19.98;6.85;;;;;;;12.10;100.00;102430.63;5079682;28;20368;-46
2023/05/20 02:13:07;;;;;;;16.80;5.57;;;;;;;12.12;100.00;102436.72;5075573;28;20040;-46
2023/05/20 02:15:32;;;;;;;13.20;5.00;;;;;;;12.13;100.00;102439.25;5081099;28;20024;-50
2023/05/20 02:17:58;;;;;;;14.00;5.43;;;;;;;12.14;100.00;102440.09;5086877;28;20048;-47
2023/05/20 02:20:23;;;;;;;15.35;5.20;;;;;;;12.15;100.00;102436.41;5082594;28;20036;-43
2023/05/20 02:22:48;;;;;;;15.95;5.20;;;;;;;12.12;100.00;102434.03;5073244;28;20130;-46
2023/05/20 02:25:14;;;;;;;17.90;5.40;;;;;;;12.14;100.00;102430.16;5089509;28;20154;-46
2023/05/20 02:27:39;;;;;;;16.17;5.30;;;;;;;12.11;100.00;102435.00;5088887;28;20036;-46
2023/05/20 02:30:06;;;;;;;17.13;5.47;;;;;;;12.17;100.00;102434.41;5093373;28;20107;-46
2023/05/20 02:32:32;;;;;;;17.17;6.13;;;;;;;12.15;100.00;102434.56;5076080;28;20240;-44
2023/05/20 02:34:57;;;;;;;18.55;5.65;;;;;;;12.13;100.00;102433.00;5079538;28;20386;-48
2023/05/20 02:37:23;;;;;;;18.50;5.60;;;;;;;12.10;100.00;102428.75;5080154;28;20028;-46
2023/05/20 02:39:48;;;;;;;15.05;5.57;;;;;;;12.11;100.00;102425.06;5074872;28;20545;-46
2023/05/20 02:42:14;;;;;;;17.60;6.07;;;;;;;12.07;100.00;102429.91;5086417;28;20135;-47
2023/05/20 02:44:40;;;;;;;12.23;4.80;;;;;;;12.10;100.00;102428.75;5079541;28;20020;-44
2023/05/20 02:47:05;;;;;;;13.10;5.63;;;;;;;12.07;100.00;102427.22;5087299;28;20347;-46
2023/05/20 02:49:30;;;;;;;13.65;5.40;;;;;;;12.04;100.00;102424.84;5080631;28;20450;-44
2023/05/20 02:51:56;;;;;;;17.83;5.10;;;;;;;12.03;100.00;102428.53;5077912;28;20032;-45
2023/05/20 02:54:21;;;;;;;19.40;5.07;;;;;;;12.05;100.00;102434.63;5073436;28;20366;-48
2023/05/20 02:56:48;;;;;;;16.42;5.40;;;;;;;12.04;100.00;102427.53;5084802;28;20036;-44
2023/05/20 02:59:13;;;;;;;16.52;5.22;;;;;;;12.07;100.00;102429.91;5081450;28;20586;-47
2023/05/20 03:01:39;;;;;;;16.70;5.20;;;;;;;12.03;100.00;102428.53;5079051;28;20025;-45
2023/05/20 03:04:04;;;;;;;16.00;6.30;;;;;;;12.08;100.00;102425.38;5086232;28;20449;-46
2023/05/20 03:06:30;;;;;;;14.77;5.57;;;;;;;12.12;100.00;102431.31;5086249;28;20031;-46
2023/05/20 03:08:57;;;;;;;19.13;6.40;;;;;;;12.12;100.00;102428.63;5080302;28;20123;-45
2023/05/20 03:11:22;;;;;;;21.48;5.70;;;;;;;12.13;100.00;102427.63;5082560;28;20050;-48
2023/05/20 03:13:47;;;;;;;19.40;5.78;;;;;;;12.14;100.00;102419.38;5078129;28;20462;-46
2023/05/20 03:16:13;;;;;;;15.52;5.88;;;;;;;12.13;100.00;102433.00;5074850;28;20028;-44
2023/05/20 03:18:38;;;;;;;13.27;5.63;;;;;;;12.17;100.00;102423.63;5085691;28;20414;-45
2023/05/20 03:21:03;;;;;;;12.43;6.07;;;;;;;12.16;100.00;102428.13;5094385;28;20035;-45
2023/05/20 03:23:29;;;;;;;18.35;5.93;;;;;;;12.16;100.00;102427.31;5087953;28;20033;-46
2023/05/20 03:25:56;;;;;;;14.27;5.50;;;;;;;12.15;100.00;102426.47;5080803;28;20432;-48
2023/05/20 03:28:21;;;;;;;16.25;5.97;;;;;;;12.17;100.00;102434.41;5088931;28;20032;-45
2023/05/20 03:30:46;;;;;;;15.93;5.45;;;;;;;12.16;100.00;102417.34;5077399;28;20044;-45
2023/05/20 03:33:12;;;;;;;19.90;6.18;;;;;;;12.15;100.00;102431.84;5087991;28;20115;-44
2023/05/20 03:35:37;;;;;;;12.98;5.63;;;;;;;12.13;100.00;102425.75;5073429;28;20048;-45
2023/05/20 03:38:03;;;;;;;18.35;6.22;;;;;;;12.17;100.00;102434.41;5089869;28;20028;-44
2023/05/20 03:40:28;;;;;;;25.50;6.15;;;;;;;12.19;100.00;102432.38;5080176;28;20028;-44
2023/05/20 03:42:53;;;;;;;16.85;5.93;;;;;;;12.19;100.00;102427.00;5093275;28;20420;-44
2023/05/20 03:45:19;;;;;;;20.45;6.55;;;;;;;12.16;100.00;102427.31;5086500;28;20030;-44
2023/05/20 03:47:45;;;;;;;16.33;6.32;;;;;;;12.19;100.00;102418.88;5090448;28;20032;-48
2023/05/20 03:50:10;;;;;;;13.95;6.30;;;;;;;12.22;100.00;102421.31;5073148;28;20155;-44
2023/05/20 03:52:36;;;;;;;15.55;5.82;;;;;;;12.23;100.00;102413.03;5091427;28;20048;-44
2023/05/20 03:55:01;;;;;;;18.98;6.32;;;;;;;12.22;100.00;102419.44;5082107;28;20122;-44
2023/05/20 03:57:28;;;;;;;14.55;5.85;;;;;;;12.23;100.00;102409.50;5089720;28;20036;-46
2023/05/20 03:59:53;;;;;;;16.58;6.13;;;;;;;12.22;100.00;102410.50;5074981;28;20078;-44
2023/05/20 04:02:19;;;;;;;13.35;5.93;;;;;;;12.24;100.00;102419.28;5078808;28;20546;-48
2023/05/20 04:04:45;;;;;;;19.88;6.82;;;;;;;12.21;100.00;102416.88;5089387;28;20035;-49
2023/05/20 04:07:10;;;;;;;24.55;7.07;;;;;;;12.15;100.00;102418.34;5079950;28;20040;-46
2023/05/20 04:09:37;;;;;;;15.32;6.45;;;;;;;12.17;100.00;102426.31;5085021;28;20130;-44
2023/05/20 04:12:02;;;;;;;15.68;6.32;;;;;;;12.11;100.00;102419.66;5080117;28;20024;-45
2023/05/20 04:14:28;;;;;;;12.50;5.95;;;;;;;12.13;100.00;102419.50;5087468;28;20047;-47
2023/05/20 04:16:53;;;;;;;20.70;6.45;;;;;;;12.13;100.00;102422.22;5074564;28;20028;-46
2023/05/20 04:19:19;;;;;;;17.73;6.10;;;;;;;12.12;100.00;102423.22;5063806;28;20044;-46
2023/05/20 04:21:44;;;;;;;15.90;6.18;;;;;;;12.09;100.00;102421.69;5081705;28;20028;-46
2023/05/20 04:24:09;;;;;;;13.77;6.53;;;;;;;12.11;100.00;102413.41;5086093;28;20040;-46
2023/05/20 04:26:37;;;;;;;13.77;5.53;;;;;;;12.10;100.00;102427.91;5089237;28;20386;-45
2023/05/20 04:29:03;;;;;;;24.95;6.78;;;;;;;12.11;100.00;102429.59;5089215;28;20024;-45
2023/05/20 04:31:29;;;;;;;18.70;6.60;;;;;;;12.15;100.00;102428.31;5088863;28;20028;-50
2023/05/20 04:33:55;;;;;;;23.23;6.57;;;;;;;12.20;100.00;102423.31;5075062;28;20083;-46
2023/05/20 04:36:21;;;;;;;16.83;7.53;;;;;;;12.23;100.00;102418.44;5069023;28;20478;-47
2023/05/20 04:38:47;;;;;;;17.35;6.22;;;;;;;12.26;100.00;102422.69;5068564;28;20028;-46
2023/05/20 04:41:12;;;;;;;22.13;6.85;;;;;;;12.36;100.00;102420.75;5085061;28;20039;-48
2023/05/20 04:43:38;;;;;;;21.33;6.80;;;;;;;12.42;100.00;102428.22;5082393;28;20111;-49
2023/05/20 04:46:08;;;;;;;14.40;6.57;;;;;;;12.48;100.00;102430.31;5068930;28;20064;-44
2023/05/20 04:48:33;;;;;;;16.92;6.30;;;;;;;12.54;100.00;102428.00;5069129;28;20028;-44
2023/05/20 04:50:59;;;;;;;19.25;6.43;;;;;;;12.61;100.00;102423.66;5072740;28;20036;-46
2023/05/20 04:53:24;;;;;;;20.95;6.53;;;;;;;12.66;100.00;102419.47;5073461;28;20461;-47
2023/05/20 04:55:53;;;;;;;17.95;6.55;;;;;;;12.81;100.00;102419.75;5078889;28;20466;-47
2023/05/20 04:58:23;;;;;;;17.67;6.30;;;;;;;12.92;100.00;102418.66;5067986;28;20265;-47
2023/05/20 05:00:49;;;;;;;16.73;5.70;;;;;;;12.98;100.00;102417.16;5072696;28;20170;-46
2023/05/20 05:03:15;;;;;;;18.25;5.97;;;;;;;13.06;100.00;102414.50;5076164;28;20020;-44
2023/05/20 05:05:41;;;;;;;9.60;5.40;;;;;;;13.16;100.00;102415.25;5068253;28;20051;-47
2023/05/20 05:08:07;;;;;;;13.65;6.05;;;;;;;13.24;100.00;102407.16;5077832;28;20040;-43
2023/05/20 05:10:33;;;;;;;14.75;6.20;;;;;;;13.35;100.00;102411.50;5068962;28;20155;-45
2023/05/20 05:12:58;;;;;;;19.23;6.22;;;;;;;13.41;100.00;102407.31;5085039;28;20813;-45
2023/05/20 05:15:24;;;;;;;18.65;6.78;;;;;;;13.39;100.00;102405.59;5075476;28;20039;-43
2023/05/20 05:17:50;;;;;;;14.75;6.53;;;;;;;13.38;100.00;102403.06;5078625;28;20020;-46
2023/05/20 05:20:16;;;;;;;12.68;5.82;;;;;;;13.37;100.00;102399.50;5075263;28;20037;-47
2023/05/20 05:22:42;;;;;;;21.08;6.20;;;;;;;13.35;100.00;102404.25;5078422;28;20024;-46
2023/05/20 05:25:08;;;;;;;12.35;5.75;;;;;;;13.36;100.00;102405.91;5078246;28;20033;-48
2023/05/20 05:27:34;;;;;;;20.45;5.50;;;;;;;13.45;100.00;102405.94;5080735;28;20052;-46
2023/05/20 05:30:03;;;;;;;12.25;5.93;;;;;;;13.55;100.00;102402.09;5077950;28;20032;-46
2023/05/20 05:32:29;;;;;;;14.18;5.97;;;;;;;13.73;100.00;102404.72;5077172;28;20081;-44
2023/05/20 05:34:54;;;;;;;13.25;5.05;;;;;;;13.80;100.00;102396.78;5077320;28;20024;-45
2023/05/20 05:37:20;;;;;;;14.13;5.75;;;;;;;13.83;100.00;102397.28;5083758;28;20020;-44
2023/05/20 05:39:46;;;;;;;17.98;6.07;;;;;;;13.75;100.00;102393.72;5082342;28;20029;-46
2023/05/20 05:42:11;;;;;;;15.90;6.45;;;;;;;13.62;100.00;102399.59;5084100;28;20509;-47
2023/05/20 05:44:37;;;;;;;15.48;6.63;;;;;;;13.50;100.00;102400.91;5062278;28;20044;-47
2023/05/20 05:47:04;;;;;;;17.80;6.50;;;;;;;13.46;100.00;102405.81;5078700;28;20024;-43
2023/05/20 05:49:29;;;;;;;17.00;6.38;;;;;;;13.46;100.00;102407.66;5081469;28;20335;-45
2023/05/20 05:51:56;;;;;;;15.63;5.90;;;;;;;13.52;100.00;102398.88;5080446;28;20047;-46
2023/05/20 05:54:21;;;;;;;13.32;6.13;;;;;;;13.61;100.00;102393.34;5078050;28;20025;-44
2023/05/20 05:56:47;;;;;;;14.05;5.95;;;;;;;13.83;100.00;102397.28;5081542;28;20111;-46
2023/05/20 05:59:12;;;;;;;16.35;5.93;;;;;;;13.96;100.00;102396.81;5081075;28;20019;-43
2023/05/20 06:01:38;;;;;;;14.13;5.80;;;;;;;13.95;100.00;102394.25;5079895;28;20032;-45
2023/05/20 06:04:03;;;;;;;12.77;5.93;;;;;;;13.89;100.00;102400.34;5071749;28;20029;-47
2023/05/20 06:06:30;;;;;;;14.30;5.63;;;;;;;13.93;100.00;102401.69;5070999;28;20035;-46
2023/05/20 06:08:56;;;;;;;14.57;6.32;;;;;;;14.02;100.00;102398.00;5073027;28;20033;-47
2023/05/20 06:11:23;;;;;;;15.45;5.55;;;;;;;14.18;100.00;102398.03;5082331;28;20061;-46
2023/05/20 06:13:48;;;;;;;19.48;6.47;;;;;;;14.35;100.00;102401.59;5092898;28;20027;-44
2023/05/20 06:16:14;;;;;;;16.67;6.60;;;;;;;14.50;100.00;102396.34;5085408;28;20028;-45
2023/05/20 06:18:39;;;;;;;13.18;5.72;;;;;;;15.00;100.00;102395.28;5080591;28;20068;-46
2023/05/20 06:21:05;;;;;;;18.45;5.85;;;;;;;15.65;100.00;102399.63;5081319;28;20085;-48
2023/05/20 06:23:30;;;;;;;13.60;5.65;;;;;;;16.27;100.00;102387.88;5094228;28;20027;-46
2023/05/20 06:25:59;;;;;;;16.38;5.85;;;;;;;16.32;100.00;102384.63;5075795;28;20039;-46
2023/05/20 06:28:25;;;;;;;18.90;6.03;;;;;;;15.98;100.00;102394.03;5088029;28;20438;-47
2023/05/20 06:30:53;;;;;;;12.27;5.60;;;;;;;15.57;100.00;102380.66;5092109;28;20028;-47
2023/05/20 06:33:19;;;;;;;18.48;6.25;;;;;;;15.25;100.00;102387.09;5093916;28;20027;-45
2023/05/20 06:35:44;;;;;;;15.85;6.18;;;;;;;15.05;100.00;102392.06;5085915;28;20062;-45
2023/05/20 06:38:09;;;;;;;11.77;6.13;;;;;;;14.94;100.00;102390.56;5074071;28;20040;-45
2023/05/20 06:40:35;;;;;;;18.38;6.20;;;;;;;15.37;100.00;102382.97;5075474;28;20079;-47
2023/05/20 06:43:00;;;;;;;17.75;6.55;;;;;;;16.53;100.00;102383.94;5075652;28;20072;-49
2023/05/20 06:45:25;;;;;;;14.25;6.47;;;;;;;17.47;100.00;102371.53;5093762;28;20500;-47
2023/05/20 06:47:53;;;;;;;14.68;5.13;;;;;;;18.01;100.00;102370.28;5074681;28;20028;-46
2023/05/20 06:50:18;;;;;;;13.85;5.00;;;;;;;18.45;100.00;102377.38;5078536;28;20498;-47
2023/05/20 06:52:43;;;;;;;14.18;4.97;;;;;;;19.17;100.00;102369.91;5086929;28;20040;-47
2023/05/20 06:55:09;;;;;;;16.23;5.20;;;;;;;20.02;100.00;102373.22;5094334;28;20039;-47
2023/05/20 06:57:34;;;;;;;11.85;4.70;;;;;;;20.55;96.57;102367.81;5094708;28;20024;-45
2023/05/20 07:00:00;;;;;;;16.15;5.20;;;;;;;20.77;92.38;102374.75;5092127;28;20080;-43
2023/05/20 07:02:25;;;;;;;16.60;5.15;;;;;;;20.76;92.29;102364.81;5093475;28;20048;-47
2023/05/20 07:04:50;;;;;;;11.07;5.03;;;;;;;20.73;91.56;102370.72;5092074;28;20084;-48
2023/05/20 07:07:16;;;;;;;10.27;4.50;;;;;;;20.89;89.80;102374.91;5092789;28;20020;-46
2023/05/20 07:09:42;;;;;;;9.60;4.55;;;;;;;21.10;90.03;102365.59;5093465;28;20032;-45
2023/05/20 07:12:07;;;;;;;14.27;5.15;;;;;;;21.46;88.22;102369.72;5093173;28;20027;-47
2023/05/20 07:14:33;;;;;;;9.48;4.38;;;;;;;21.67;87.78;102360.34;5091939;28;20024;-44
2023/05/20 07:16:58;;;;;;;10.07;5.07;;;;;;;21.61;86.95;102364.78;5093304;28;20055;-46
2023/05/20 07:19:23;;;;;;;8.60;4.18;;;;;;;21.97;86.63;102370.72;5091922;28;20036;-49
2023/05/20 07:21:49;;;;;;;11.40;4.68;;;;;;;22.39;84.46;102366.41;5093007;28;20028;-49
2023/05/20 07:24:15;;;;;;;11.40;4.68;;;;;;;22.54;82.51;102363.34;5092447;28;20024;-45
2023/05/20 07:26:40;;;;;;;8.77;4.25;;;;;;;22.86;82.29;102357.75;5091612;28;20039;-47
2023/05/20 07:29:06;;;;;;;9.68;4.22;;;;;;;23.42;79.13;102357.53;5091445;28;20020;-48
2023/05/20 07:31:31;;;;;;;11.30;4.00;;;;;;;23.69;76.78;102356.31;5092547;28;20038;-45
2023/05/20 07:33:57;;;;;;;9.70;4.10;;;;;;;23.88;74.82;102350.59;5092198;28;20112;-46
2023/05/20 07:36:25;;;;;;;13.40;4.05;;;;;;;24.00;77.50;102352.53;5092203;28;20432;-46
2023/05/20 07:38:50;;;;;;;;;;;;;;;24.53;73.35;102347.00;5092491;28;20020;-47
2023/05/20 07:41:15;;;;;;;8.48;3.80;;;;;;;24.60;68.72;102341.38;5092731;28;19908;-43
2023/05/20 07:43:41;;;;;;;10.68;3.45;;;;;;;24.62;67.88;102350.25;5093258;28;20371;-46
2023/05/20 07:46:06;;;;;;;9.90;3.53;;;;;;;24.52;69.19;102345.31;5095313;28;20036;-44
2023/05/20 07:48:31;;;;;;;7.40;3.45;;;;;;;24.67;68.45;102338.50;5094379;28;20028;-47
2023/05/20 07:50:58;;;;;;;9.63;3.25;;;;;;;24.77;66.21;102340.66;5093155;28;20107;-45
2023/05/20 07:53:24;;;;;;;6.63;3.17;;;;;;;24.68;64.41;102342.94;5092447;28;20067;-44
2023/05/20 07:55:49;;;;;;;5.60;3.22;;;;;;;24.66;65.23;102345.91;5091384;28;20478;-46
2023/05/20 07:58:15;;;;;;;8.00;3.30;;;;;;;24.46;66.20;102342.69;5089658;28;20074;-44
2023/05/20 08:00:40;;;;;;;7.03;3.08;;;;;;;24.21;65.50;102329.94;5090157;28;20111;-45
2023/05/20 08:03:06;;;;;;;13.13;3.15;;;;;;;24.32;65.64;102328.28;5087691;28;20111;-47
2023/05/20 08:05:32;;;;;;;6.35;2.85;;;;;;;24.86;66.21;102323.53;5089817;28;20028;-49
2023/05/20 08:07:57;;;;;;;6.07;3.08;;;;;;;25.04;63.35;102319.78;5087469;28;20373;-47
2023/05/20 08:10:22;;;;;;;5.47;2.63;;;;;;;25.48;61.67;102330.31;5089604;28;20028;-46
2023/05/20 08:12:48;;;;;;;5.70;3.10;;;;;;;25.28;61.26;102328.84;5084338;28;20024;-46
2023/05/20 08:15:13;;;;;;;3.50;2.60;;;;;;;25.23;61.19;102326.00;5089410;28;20110;-46
2023/05/20 08:17:39;;;;;;;9.10;2.95;;;;;;;25.67;60.17;102325.44;5087028;28;20023;-46
2023/05/20 08:20:06;;;;;;;4.78;2.85;;;;;;;25.81;58.04;102340.59;5089578;28;20407;-45
2023/05/20 08:22:32;;;;;;;6.35;2.65;;;;;;;25.40;58.70;102332.38;5088634;28;20024;-45
2023/05/20 08:24:57;;;;;;;5.43;2.80;;;;;;;25.28;57.54;102333.53;5068946;28;20051;-46
2023/05/20 08:27:23;;;;;;;10.02;2.58;;;;;;;24.96;57.41;102336.66;5070025;28;20055;-45
2023/05/20 08:29:48;;;;;;;5.25;2.67;;;;;;;24.57;59.46;102325.34;5081693;28;20498;-45
2023/05/20 08:32:14;;;;;;;7.50;3.30;;;;;;;24.65;59.08;102333.25;5089628;28;20032;-45
2023/05/20 08:34:39;;;;;;;6.40;2.72;;;;;;;24.63;58.19;102320.78;5086270;28;20118;-43
2023/05/20 08:37:05;;;;;;;4.78;2.70;;;;;;;24.88;58.00;102310.34;5087398;28;20444;-46
2023/05/20 08:39:30;;;;;;;5.00;2.60;;;;;;;25.49;57.57;102316.31;5086734;28;20024;-47
2023/05/20 08:41:57;;;;;;;5.65;2.63;;;;;;;25.89;55.78;102312.66;5087226;28;20074;-47
2023/05/20 08:44:23;;;;;;;5.47;2.40;;;;;;;26.19;51.99;102319.75;5077122;28;20036;-46
2023/05/20 08:46:49;;;;;;;5.53;2.28;;;;;;;26.03;52.43;102315.91;5063903;28;20109;-44
2023/05/20 08:49:14;;;;;;;13.00;2.83;;;;;;;25.55;52.78;102303.44;5081441;28;20428;-44
2023/05/20 08:51:41;;;;;;;5.75;2.63;;;;;;;25.09;52.99;102311.63;5070025;28;20139;-43
2023/05/20 08:54:08;;;;;;;9.32;2.47;;;;;;;24.69;52.61;102304.13;5069063;28;20049;-48
2023/05/20 08:56:34;;;;;;;5.93;2.35;;;;;;;24.79;55.03;102310.97;5070681;28;20174;-44
2023/05/20 08:59:00;;;;;;;4.90;2.22;;;;;;;25.13;55.51;102315.56;5071438;28;20039;-46
2023/05/20 09:01:25;;;;;;;7.97;2.85;;;;;;;24.99;53.20;102300.38;5080330;28;20371;-48
2023/05/20 09:03:51;;;;;;;5.28;2.35;;;;;;;24.90;56.01;102307.34;5087422;28;20028;-50
2023/05/20 09:06:20;;;;;;;7.93;2.58;;;;;;;24.61;54.45;102307.25;5088772;28;20075;-44
2023/05/20 09:08:48;;;;;;;2.95;1.80;;;;;;;24.71;53.83;102317.66;5085902;28;20431;-46
2023/05/20 09:11:13;;;;;;;3.47;2.20;;;;;;;24.71;52.59;102299.22;5069540;28;20360;-45
2023/05/20 09:13:38;;;;;;;7.22;2.28;;;;;;;24.90;53.85;102305.41;5066334;28;20029;-43
2023/05/20 09:16:04;;;;;;;3.78;2.00;;;;;;;25.37;52.46;102302.56;5068193;28;20066;-44
2023/05/20 09:18:30;;;;;;;3.38;1.98;;;;;;;25.51;50.40;102302.25;5068469;28;20028;-46
2023/05/20 09:20:56;;;;;;;6.53;2.05;;;;;;;25.38;50.18;102304.25;5067108;28;20052;-44
2023/05/20 09:23:23;;;;;;;4.13;2.15;;;;;;;25.43;49.95;102295.22;5084316;28;20044;-45
2023/05/20 09:25:50;;;;;;;;;;;;;;;25.17;51.98;102294.75;5084429;28;20036;-45
2023/05/20 09:28:17;;;;;;;3.65;2.10;;;;;;;25.73;52.24;102286.69;5088780;28;20235;-47
2023/05/20 09:30:43;;;;;;;3.17;2.08;;;;;;;25.52;48.86;102299.25;5072231;28;20512;-43
2023/05/20 09:33:10;;;;;;;3.03;2.00;;;;;;;25.39;48.37;102291.31;5076221;28;20067;-45
2023/05/20 09:35:38;;;;;;;;;;;;;;;25.23;48.92;102281.91;5078348;28;20024;-46
2023/05/20 09:38:08;;;;;;;6.97;2.17;;;;;;;24.77;49.13;102291.91;5076936;28;19987;-47
2023/05/20 09:40:36;;;;;;;3.88;2.00;;;;;;;24.94;49.55;102287.34;5086841;28;20131;-46
2023/05/20 09:43:06;;;;;;;2.58;1.77;;;;;;;24.99;49.56;102275.59;5073555;28;20289;-45
2023/05/20 09:45:32;;;;;;;6.55;2.22;;;;;;;24.96;48.70;102276.94;5081466;28;20448;-47
2023/05/20 09:47:58;;;;;;;4.40;2.00;;;;;;;24.95;50.28;102288.16;5089546;28;20115;-45
2023/05/20 09:50:24;;;;;;;4.83;2.07;;;;;;;24.70;50.59;102274.72;5085975;28;20452;-45
2023/05/20 09:52:51;;;;;;;5.22;2.08;;;;;;;24.40;52.46;102275.66;5077228;28;20044;-46
2023/05/20 09:55:18;;;;;;;2.90;1.95;;;;;;;24.98;51.09;102271.16;5070915;28;20033;-44
2023/05/20 09:57:44;;;;;;;7.07;1.88;;;;;;;25.25;49.44;102270.63;5091231;28;20032;-46
2023/05/20 10:00:12;;;;;;;3.78;1.85;;;;;;;25.41;49.32;102275.34;5085655;28;20151;-45
2023/05/20 10:02:40;;;;;;;5.50;2.42;;;;;;;25.38;48.28;102264.81;5079360;28;20329;-45
2023/05/20 10:05:12;;;;;;;7.72;1.90;;;;;;;25.39;48.12;102272.00;5086098;28;20031;-47
2023/05/20 10:07:53;;;;;;;9.07;2.10;;;;;;;25.31;48.61;102264.13;5086188;28;20046;-43
2023/05/20 10:10:27;;;;;;;10.48;2.30;;;;;;;25.30;48.85;102256.94;5080522;28;20166;-45
2023/05/20 10:13:02;;;;;;;7.43;2.00;;;;;;;25.40;48.88;102252.44;5072586;28;20032;-45
2023/05/20 10:15:37;;;;;;;2.75;2.10;;;;;;;25.26;48.76;102250.25;5070817;28;20509;-48
2023/05/20 10:18:21;;;;;;;10.15;2.20;;;;;;;25.08;48.47;102251.25;5087464;28;20338;-45
2023/05/20 10:20:47;;;;;;;4.38;1.85;;;;;;;24.78;47.92;102245.94;5079671;28;20571;-49
2023/05/20 10:23:42;;;;;;;2.03;1.80;;;;;;;24.72;49.05;102251.38;5077232;28;20528;-49
2023/05/20 10:26:07;;;;;;;3.72;1.88;;;;;;;24.86;48.82;102240.91;5062420;28;20097;-45
2023/05/20 10:28:37;;;;;;;3.75;2.20;;;;;;;25.17;49.19;102247.03;5081353;28;20017;-46
2023/05/20 10:31:14;;;;;;;5.22;1.85;;;;;;;25.13;46.37;102246.69;5078698;28;20044;-48
2023/05/20 10:33:41;;;;;;;4.88;1.95;;;;;;;25.19;47.22;102233.88;5078392;28;20036;-45
2023/05/20 10:36:08;;;;;;;2.88;1.80;;;;;;;25.31;47.90;102231.06;5078268;28;20533;-46
2023/05/20 10:38:33;;;;;;;4.70;1.80;;;;;;;25.46;46.67;102212.06;5079534;28;20108;-48
2023/05/20 10:41:10;;;;;;;3.45;1.55;;;;;;;25.60;44.57;102215.31;5077681;28;20050;-46
2023/05/20 10:43:35;;;;;;;4.50;1.80;;;;;;;25.74;45.89;102215.81;5064969;28;20115;-44
2023/05/20 10:46:01;;;;;;;2.20;1.60;;;;;;;25.35;44.12;102212.94;5081149;28;20111;-46
2023/05/20 10:48:31;;;;;;;3.58;1.83;;;;;;;25.30;45.60;102208.16;5081194;28;20024;-45
2023/05/20 10:51:02;;;;;;;3.88;1.67;;;;;;;25.53;46.50;102203.63;5074176;28;20040;-46
2023/05/20 10:53:29;;;;;;;4.28;1.80;;;;;;;25.55;44.68;102227.09;5055544;28;20045;-45
2023/05/20 10:55:55;;;;;;;7.15;1.75;;;;;;;24.86;46.44;102204.28;5074296;28;20481;-46
2023/05/20 10:58:22;;;;;;;2.08;1.65;;;;;;;24.88;47.62;102207.59;5071667;28;20028;-47
2023/05/20 11:00:49;;;;;;;3.33;1.60;;;;;;;25.27;44.67;102221.63;5091007;28;20461;-48
2023/05/20 11:03:17;;;;;;;6.50;1.70;;;;;;;25.05;44.95;102205.75;5093074;28;20016;-45
2023/05/20 11:05:44;;;;;;;6.10;1.75;;;;;;;25.14;43.91;102198.75;5091406;28;20361;-46
2023/05/20 11:08:09;;;;;;;4.53;1.67;;;;;;;25.30;44.60;102190.81;5080973;28;20110;-45
2023/05/20 11:10:35;;;;;;;3.05;1.65;;;;;;;25.59;43.76;102186.94;5085339;28;20047;-45
2023/05/20 11:13:02;;;;;;;6.85;2.17;;;;;;;24.87;46.08;102193.00;5088090;28;20060;-46